createdAt,value
2022-08-07T00:00:27.588Z,16.52
2022-08-07T00:03:52.952Z,16.48
2022-08-07T00:07:18.345Z,16.48
2022-08-07T00:10:47.813Z,16.51
2022-08-07T00:14:09.066Z,16.530001
2022-08-07T00:17:35.297Z,16.49
2022-08-07T00:21:01.559Z,16.469999
2022-08-07T00:24:25.147Z,16.450001
2022-08-07T00:27:52.085Z,16.42
2022-08-07T00:31:16.643Z,16.34
2022-08-07T00:34:41.257Z,16.23
2022-08-07T00:38:06.597Z,16.09
2022-08-07T00:41:31.947Z,15.97
2022-08-07T00:44:57.359Z,15.86
2022-08-07T00:48:25.023Z,15.76
2022-08-07T00:51:56.509Z,15.72
2022-08-07T00:55:13.495Z,15.67
2022-08-07T00:58:38.868Z,15.61
2022-08-07T01:02:04.298Z,15.58
2022-08-07T01:05:29.560Z,15.56
2022-08-07T01:08:55.831Z,15.52
2022-08-07T01:12:28.232Z,15.51
2022-08-07T01:16:01.398Z,15.49
2022-08-07T01:19:14.865Z,15.47
2022-08-07T01:22:36.315Z,15.45
2022-08-07T01:26:01.748Z,15.42
2022-08-07T01:29:27.607Z,15.39
2022-08-07T01:32:52.439Z,15.35
2022-08-07T01:36:17.847Z,15.3
2022-08-07T01:39:46.689Z,15.28
2022-08-07T01:43:08.526Z,15.26
2022-08-07T01:46:33.881Z,15.22
2022-08-07T01:49:59.242Z,15.2
2022-08-07T01:54:09.704Z,15.12
2022-08-07T01:56:49.929Z,15.03
2022-08-07T02:00:15.278Z,14.92
2022-08-07T02:03:42.960Z,14.82
2022-08-07T02:07:06.066Z,14.72
2022-08-07T02:10:31.345Z,14.69
2022-08-07T02:14:00.792Z,14.67
2022-08-07T02:17:24.973Z,14.61
2022-08-07T02:20:48.603Z,14.48
2022-08-07T02:24:12.728Z,14.38
2022-08-07T02:27:40.994Z,14.3
2022-08-07T02:31:10.109Z,14.28
2022-08-07T02:34:28.649Z,14.29
2022-08-07T02:37:53.952Z,14.26
2022-08-07T02:41:21.628Z,14.17
2022-08-07T02:44:48.090Z,14.14
2022-08-07T02:48:15.404Z,14.11
2022-08-07T02:51:42.269Z,14.07
2022-08-07T02:55:00.600Z,14.01
2022-08-07T02:58:27.159Z,13.93
2022-08-07T03:01:51.991Z,13.91
2022-08-07T03:05:20.630Z,13.91
2022-08-07T03:08:41.923Z,13.91
2022-08-07T03:12:08.046Z,13.89
2022-08-07T03:15:47.583Z,13.88
2022-08-07T03:18:57.910Z,13.86
2022-08-07T03:22:23.257Z,13.82
2022-08-07T03:25:50.867Z,13.79
2022-08-07T03:29:14.827Z,13.79
2022-08-07T03:32:39.185Z,13.79
2022-08-07T03:36:04.474Z,13.77
2022-08-07T03:39:46.654Z,13.74
2022-08-07T03:42:55.138Z,13.73
2022-08-07T03:46:20.418Z,13.72
2022-08-07T03:49:47.854Z,13.74
2022-08-07T03:53:11.099Z,13.76
2022-08-07T03:56:36.389Z,13.74
2022-08-07T04:00:02.831Z,13.73
2022-08-07T04:03:27.060Z,13.74
2022-08-07T04:06:52.421Z,13.74
2022-08-07T04:10:19.383Z,13.77
2022-08-07T04:14:09.777Z,13.84
2022-08-07T04:17:16.661Z,13.86
2022-08-07T04:20:35.120Z,13.88
2022-08-07T04:24:03.081Z,13.92
2022-08-07T04:27:25.574Z,13.98
2022-08-07T04:30:55.683Z,14.05
2022-08-07T04:34:16.367Z,14.11
2022-08-07T04:38:02.882Z,14.15
2022-08-07T04:41:05.621Z,14.21
2022-08-07T04:44:30.938Z,14.28
2022-08-07T04:47:57.509Z,14.37
2022-08-07T04:51:21.565Z,14.45
2022-08-07T04:54:47.129Z,14.52
2022-08-07T04:58:29.515Z,14.63
2022-08-07T05:01:37.523Z,14.83
2022-08-07T05:05:02.835Z,15.05
2022-08-07T05:08:45.683Z,15.25
2022-08-07T05:11:57.825Z,15.43
2022-08-07T05:15:21.557Z,15.67
2022-08-07T05:18:44.123Z,15.89
2022-08-07T05:22:09.448Z,16.120001
2022-08-07T05:25:37.530Z,16.35
2022-08-07T05:29:00.073Z,16.540001
2022-08-07T05:32:25.429Z,16.690001
2022-08-07T05:35:50.727Z,16.860001
2022-08-07T05:40:07.177Z,17.01
2022-08-07T05:42:41.397Z,17.16
2022-08-07T05:46:07.024Z,17.309999
2022-08-07T05:49:37.226Z,17.440001
2022-08-07T05:52:57.661Z,17.629999
2022-08-07T05:56:23.958Z,17.82
2022-08-07T05:59:56.347Z,18.02
2022-08-07T06:03:13.555Z,18.27
2022-08-07T06:06:38.831Z,18.469999
2022-08-07T06:10:06.070Z,18.629999
2022-08-07T06:14:11.160Z,18.83
2022-08-07T06:16:55.765Z,19.040001
2022-08-07T06:20:25.139Z,19.299999
2022-08-07T06:24:38.847Z,19.48
2022-08-07T06:27:22.902Z,19.629999
2022-08-07T06:30:46.155Z,19.76
2022-08-07T06:34:11.385Z,19.91
2022-08-07T06:37:43.331Z,19.98
2022-08-07T06:41:02.085Z,20.07
2022-08-07T06:44:30.971Z,20.16
2022-08-07T06:47:57.154Z,20.219999
2022-08-07T06:51:24.525Z,20.24
2022-08-07T06:55:30.751Z,20.27
2022-08-07T06:58:10.482Z,20.27
2022-08-07T07:01:42.254Z,20.23
2022-08-07T07:05:01.043Z,20.27
2022-08-07T07:08:26.722Z,20.290001
2022-08-07T07:12:07.101Z,20.34
2022-08-07T07:15:23.701Z,20.4
2022-08-07T07:18:46.882Z,20.440001
2022-08-07T07:22:12.395Z,20.51
2022-08-07T07:26:31.833Z,20.530001
2022-08-07T07:29:23.723Z,20.58
2022-08-07T07:32:25.063Z,20.66
2022-08-07T07:36:04.180Z,20.73
2022-08-07T07:39:35.930Z,20.780001
2022-08-07T07:42:54.002Z,20.809999
2022-08-07T07:46:36.322Z,20.889999
2022-08-07T07:50:31.705Z,20.969999
2022-08-07T07:53:13.741Z,21.09
2022-08-07T07:56:35.082Z,21.190001
2022-08-07T08:00:00.403Z,21.26
2022-08-07T08:04:06.887Z,21.26
2022-08-07T08:06:52.416Z,21.32
2022-08-07T08:10:35.800Z,21.360001
2022-08-07T08:13:53.614Z,21.379999
2022-08-07T08:17:14.166Z,21.389999
2022-08-07T08:20:32.452Z,21.389999
2022-08-07T08:23:57.744Z,21.389999
2022-08-07T08:27:23.253Z,21.41
2022-08-07T08:30:50.927Z,21.469999
2022-08-07T08:34:19.105Z,21.549999
2022-08-07T08:37:59.993Z,21.66
2022-08-07T08:41:04.529Z,21.73
2022-08-07T08:44:31.349Z,21.870001
2022-08-07T08:47:55.367Z,21.99
2022-08-07T08:51:26.135Z,21.91
2022-08-07T08:54:46.096Z,21.83
2022-08-07T08:58:13.120Z,21.77
2022-08-07T09:01:39.703Z,21.82
2022-08-07T09:05:01.920Z,21.809999
2022-08-07T09:08:28.401Z,21.85
2022-08-07T09:11:53.667Z,21.77
2022-08-07T09:16:21.317Z,21.73
2022-08-07T09:18:47.240Z,21.85
2022-08-07T09:22:23.297Z,22.07
2022-08-07T09:25:33.964Z,22.190001
2022-08-07T09:30:02.573Z,22.17
2022-08-07T09:32:24.587Z,22.02
2022-08-07T09:36:01.557Z,21.83
2022-08-07T09:39:27.381Z,21.709999
2022-08-07T09:42:40.519Z,21.67
2022-08-07T09:46:29.192Z,21.780001
2022-08-07T09:50:00.043Z,21.98
2022-08-07T09:52:56.576Z,22.17
2022-08-07T09:56:33.918Z,22.32
2022-08-07T10:00:00.490Z,22.51
2022-08-07T10:04:04.563Z,22.76
2022-08-07T10:06:37.982Z,22.93
2022-08-07T10:10:03.474Z,23.02
2022-08-07T10:13:30.038Z,23.120001
2022-08-07T10:16:54.143Z,23.24
2022-08-07T10:20:20.681Z,23.35
2022-08-07T10:24:04.404Z,23.450001
2022-08-07T10:27:10.770Z,23.6
2022-08-07T10:30:35.567Z,23.690001
2022-08-07T10:34:05.238Z,23.799999
2022-08-07T10:37:48.540Z,23.889999
2022-08-07T10:40:51.908Z,23.99
2022-08-07T10:44:19.446Z,24.129999
2022-08-07T10:47:50.708Z,24.200001
2022-08-07T10:51:16.518Z,24.309999
2022-08-07T10:54:33.302Z,24.360001
2022-08-07T10:58:15.348Z,24.5
2022-08-07T11:01:50.953Z,24.639999
2022-08-07T11:05:08.668Z,24.690001
2022-08-07T11:08:32.284Z,24.709999
2022-08-07T11:11:59.247Z,24.690001
2022-08-07T11:15:26.424Z,24.620001
2022-08-07T11:18:50.672Z,24.610001
2022-08-07T11:22:19.050Z,24.629999
2022-08-07T11:25:42.369Z,24.66
2022-08-07T11:29:05.570Z,24.75
2022-08-07T11:32:29.638Z,24.870001
2022-08-07T11:35:59.278Z,24.91
2022-08-07T11:39:20.515Z,24.91
2022-08-07T11:42:45.560Z,24.92
2022-08-07T11:46:10.867Z,24.969999
2022-08-07T11:49:51.737Z,24.940001
2022-08-07T11:53:01.486Z,24.879999
2022-08-07T11:56:28.214Z,24.84
2022-08-07T12:00:08.753Z,24.84
2022-08-07T12:03:42.408Z,24.83
2022-08-07T12:06:51.867Z,24.82
2022-08-07T12:10:12.517Z,24.879999
2022-08-07T12:13:40.034Z,24.92
2022-08-07T12:17:02.848Z,24.950001
2022-08-07T12:20:29.964Z,24.83
2022-08-07T12:24:06.441Z,24.77
2022-08-07T12:27:27.755Z,24.74
2022-08-07T12:30:50.046Z,24.799999
2022-08-07T12:34:11.938Z,24.85
2022-08-07T12:38:08.881Z,24.83
2022-08-07T12:41:02.658Z,24.780001
2022-08-07T12:44:27.994Z,24.780001
2022-08-07T12:47:53.294Z,24.85
2022-08-07T12:51:18.619Z,24.98
2022-08-07T12:54:43.962Z,25.15
2022-08-07T12:58:09.265Z,25.27
2022-08-07T13:01:34.694Z,25.360001
2022-08-07T13:05:01.334Z,25.34
2022-08-07T13:08:25.446Z,25.23
2022-08-07T13:12:00.875Z,25.120001
2022-08-07T13:15:32.161Z,25.030001
2022-08-07T13:18:41.208Z,24.969999
2022-08-07T13:22:12.847Z,24.940001
2022-08-07T13:25:32.023Z,24.93
2022-08-07T13:28:58.306Z,24.950001
2022-08-07T13:32:23.862Z,24.99
2022-08-07T13:35:59.991Z,25.02
2022-08-07T13:39:28.767Z,25.030001
2022-08-07T13:42:39.324Z,25
2022-08-07T13:46:07.600Z,24.940001
2022-08-07T13:50:32.340Z,24.92
2022-08-07T13:52:55.094Z,24.940001
2022-08-07T13:56:20.435Z,25.02
2022-08-07T13:59:45.962Z,25
2022-08-07T14:03:11.358Z,24.940001
2022-08-07T14:07:01.258Z,24.950001
2022-08-07T14:10:31.939Z,25.059999
2022-08-07T14:14:08.233Z,25.049999
2022-08-07T14:18:13.470Z,25.059999
2022-08-07T14:21:07.037Z,25.049999
2022-08-07T14:24:33.380Z,25.030001
2022-08-07T14:28:10.049Z,24.98
2022-08-07T15:03:20.677Z,22.559999
2022-08-07T15:06:47.727Z,23.49
2022-08-07T15:10:11.615Z,23.74
2022-08-07T15:13:37.176Z,23.950001
2022-08-07T15:17:02.202Z,24.129999
2022-08-07T15:20:32.076Z,24.23
2022-08-07T15:25:03.162Z,24.299999
2022-08-07T15:27:18.326Z,24.389999
2022-08-07T15:30:59.775Z,24.459999
2022-08-07T15:44:25.124Z,24.57
2022-08-07T15:48:00.507Z,24.57
2022-08-07T15:51:15.778Z,24.57
2022-08-07T15:54:41.124Z,24.559999
2022-08-07T15:58:06.832Z,24.540001
2022-08-07T16:01:38.956Z,24.530001
2022-08-07T16:04:57.075Z,24.49
2022-08-07T16:08:29.509Z,24.43
2022-08-07T16:11:47.742Z,24.4
2022-08-07T16:15:41.970Z,24.389999
2022-08-07T16:18:43.745Z,24.370001
2022-08-07T16:22:08.811Z,24.309999
2022-08-07T16:25:52.855Z,24.27
2022-08-07T16:29:19.453Z,24.219999
2022-08-07T16:32:33.386Z,24.190001
2022-08-07T16:35:52.227Z,24.18
2022-08-07T16:39:10.556Z,24.16
2022-08-07T16:42:36.557Z,24.110001
2022-08-07T16:46:21.758Z,24.08
2022-08-07T16:50:19.717Z,24.049999
2022-08-07T16:52:55.473Z,24
2022-08-07T16:56:17.414Z,23.969999
2022-08-07T16:59:44.218Z,23.940001
2022-08-07T17:03:09.147Z,23.92
2022-08-07T17:06:39.943Z,23.91
2022-08-07T17:10:05.811Z,23.870001
2022-08-07T17:13:24.328Z,23.809999
2022-08-07T17:16:55.667Z,23.75
2022-08-07T17:20:20.786Z,23.67
2022-08-07T17:23:46.224Z,23.6
2022-08-07T17:27:20.072Z,23.540001
2022-08-07T17:30:57.872Z,23.5
2022-08-07T17:34:32.966Z,23.440001
2022-08-07T17:38:05.209Z,23.41
2022-08-07T17:41:12.538Z,23.360001
2022-08-07T17:44:33.429Z,23.33
2022-08-07T17:47:56.120Z,23.26
2022-08-07T17:51:23.061Z,23.190001
2022-08-07T17:54:53.412Z,23.15
2022-08-07T17:58:12.035Z,23.1
2022-08-07T18:01:37.523Z,23.02
2022-08-07T18:05:10.618Z,22.950001
2022-08-07T18:08:28.077Z,22.860001
2022-08-07T18:12:08.541Z,22.799999
2022-08-07T18:15:18.684Z,22.74
2022-08-07T18:18:47.816Z,22.690001
2022-08-07T18:22:11.539Z,22.629999
2022-08-07T18:25:39.490Z,22.549999
2022-08-07T18:28:59.951Z,22.49
2022-08-07T18:32:25.249Z,22.43
2022-08-07T18:35:52.138Z,22.34
2022-08-07T18:40:06.069Z,22.26
2022-08-07T18:42:41.638Z,22.18
2022-08-07T18:46:22.275Z,22.120001
2022-08-07T18:50:19.669Z,22.049999
2022-08-07T18:53:01.583Z,21.99
2022-08-07T18:56:30.631Z,21.9
2022-08-07T18:59:58.584Z,21.82
2022-08-07T19:03:15.845Z,21.76
2022-08-07T19:06:41.096Z,21.700001
2022-08-07T19:10:04.730Z,21.65
2022-08-07T19:13:30.114Z,21.6
2022-08-07T19:17:06.155Z,21.57
2022-08-07T19:20:29.416Z,21.51
2022-08-07T19:23:57.759Z,21.440001
2022-08-07T19:28:31.119Z,21.379999
2022-08-07T19:30:59.492Z,21.360001
2022-08-07T19:34:02.437Z,21.309999
2022-08-07T19:37:55.046Z,21.25
2022-08-07T19:40:53.228Z,21.17
2022-08-07T19:44:19.105Z,21.120001
2022-08-07T19:47:44.022Z,21.07
2022-08-07T19:51:19.734Z,21.040001
2022-08-07T19:54:44.456Z,20.99
2022-08-07T19:58:12.935Z,20.940001
2022-08-07T20:01:52.497Z,20.889999
2022-08-07T20:04:51.908Z,20.84
2022-08-07T20:08:16.889Z,20.780001
2022-08-07T20:12:01.765Z,20.74
2022-08-07T20:15:09.654Z,20.700001
2022-08-07T20:18:33.845Z,20.65
2022-08-07T20:21:57.843Z,20.620001
2022-08-07T20:25:23.236Z,20.59
2022-08-07T20:28:48.634Z,20.530001
2022-08-07T20:32:22.461Z,20.49
2022-08-07T20:35:51.606Z,20.459999
2022-08-07T20:39:06.128Z,20.42
2022-08-07T20:42:30.184Z,20.370001
2022-08-07T20:46:28.976Z,20.34
2022-08-07T20:49:54.999Z,20.299999
2022-08-07T20:52:50.934Z,20.280001
2022-08-07T20:56:11.620Z,20.26
2022-08-07T21:00:05.818Z,20.25
2022-08-07T21:03:02.362Z,20.209999
2022-08-07T21:06:28.339Z,20.190001
2022-08-07T21:10:00.145Z,20.17
2022-08-07T21:13:18.439Z,20.15
2022-08-07T21:16:46.926Z,20.129999
2022-08-07T21:20:09.873Z,20.120001
2022-08-07T21:23:34.581Z,20.049999
2022-08-07T21:26:59.936Z,19.99
2022-08-07T21:30:25.296Z,19.969999
2022-08-07T21:33:50.831Z,19.940001
2022-08-07T21:37:16.029Z,19.92
2022-08-07T21:40:41.491Z,19.91
2022-08-07T21:44:06.816Z,19.860001
2022-08-07T21:47:34.612Z,19.82
2022-08-07T21:50:57.457Z,19.790001
2022-08-07T21:54:22.856Z,19.75
2022-08-07T21:57:52.140Z,19.719999
2022-08-07T22:01:13.670Z,19.67
2022-08-07T22:04:39.025Z,19.65
2022-08-07T22:08:04.344Z,19.59
2022-08-07T22:11:30.615Z,19.559999
2022-08-07T22:14:59.196Z,19.540001
2022-08-07T22:18:20.423Z,19.51
2022-08-07T22:22:02.880Z,19.5
2022-08-07T22:25:12.033Z,19.440001
2022-08-07T22:28:36.565Z,19.42
2022-08-07T22:32:05.429Z,19.389999
2022-08-07T22:35:35.561Z,19.370001
2022-08-07T22:38:52.651Z,19.34
2022-08-07T22:42:19.228Z,19.33
2022-08-07T22:46:05.153Z,19.309999
2022-08-07T22:49:09.533Z,19.27
2022-08-07T22:52:37.202Z,19.24
2022-08-07T22:55:59.300Z,19.23
2022-08-07T22:59:24.623Z,19.200001
2022-08-07T23:02:50.030Z,19.200001
2022-08-07T23:06:16.561Z,19.17
2022-08-07T23:10:01.227Z,19.15
2022-08-07T23:13:05.981Z,19.16
2022-08-07T23:16:39.347Z,19.15
2022-08-07T23:19:57.821Z,19.15
2022-08-07T23:24:04.651Z,19.15
2022-08-07T23:26:50.125Z,19.15
2022-08-07T23:30:36.450Z,19.139999
2022-08-07T23:34:24.689Z,19.120001
2022-08-07T23:37:19.774Z,19.09
2022-08-07T23:40:28.478Z,19.08
2022-08-07T23:43:53.827Z,19.030001
2022-08-07T23:47:19.136Z,19.01
2022-08-07T23:50:44.439Z,18.99
2022-08-07T23:54:11.642Z,18.950001
2022-08-07T23:57:35.121Z,18.92
